sensor_id;sensor_type;location;lat;lon;timestamp;P1;durP1;ratioP1;P2;durP2;ratioP2
8074;SDS011;4080;42.676;23.372;2024-03-17T00:00:01;19.00;;;12.60;;
8074;SDS011;4080;42.676;23.372;2024-03-17T00:02:28;16.97;;;12.07;;
8074;SDS011;4080;42.676;23.372;2024-03-17T00:04:54;18.43;;;13.00;;
8074;SDS011;4080;42.676;23.372;2024-03-17T00:07:22;16.50;;;13.17;;
8074;SDS011;4080;42.676;23.372;2024-03-17T00:09:48;18.47;;;13.13;;
8074;SDS011;4080;42.676;23.372;2024-03-17T00:12:15;18.83;;;12.80;;
8074;SDS011;4080;42.676;23.372;2024-03-17T00:14:42;18.87;;;13.73;;
8074;SDS011;4080;42.676;23.372;2024-03-17T00:17:10;18.80;;;13.70;;
8074;SDS011;4080;42.676;23.372;2024-03-17T00:19:37;20.77;;;13.10;;
8074;SDS011;4080;42.676;23.372;2024-03-17T00:22:03;17.70;;;13.50;;
8074;SDS011;4080;42.676;23.372;2024-03-17T00:24:32;18.47;;;12.40;;
8074;SDS011;4080;42.676;23.372;2024-03-17T00:27:00;18.53;;;13.77;;
8074;SDS011;4080;42.676;23.372;2024-03-17T00:29:27;18.00;;;12.87;;
8074;SDS011;4080;42.676;23.372;2024-03-17T00:31:53;21.87;;;13.40;;
8074;SDS011;4080;42.676;23.372;2024-03-17T00:34:20;17.73;;;13.50;;
8074;SDS011;4080;42.676;23.372;2024-03-17T00:36:46;17.90;;;13.03;;
8074;SDS011;4080;42.676;23.372;2024-03-17T00:39:13;19.73;;;13.30;;
8074;SDS011;4080;42.676;23.372;2024-03-17T00:41:41;17.10;;;12.93;;
8074;SDS011;4080;42.676;23.372;2024-03-17T00:44:07;19.37;;;12.97;;
8074;SDS011;4080;42.676;23.372;2024-03-17T00:46:33;19.90;;;13.07;;
8074;SDS011;4080;42.676;23.372;2024-03-17T00:49:00;19.33;;;13.40;;
8074;SDS011;4080;42.676;23.372;2024-03-17T00:51:26;20.03;;;13.63;;
8074;SDS011;4080;42.676;23.372;2024-03-17T00:53:53;21.53;;;14.93;;
8074;SDS011;4080;42.676;23.372;2024-03-17T00:56:21;21.27;;;13.90;;
8074;SDS011;4080;42.676;23.372;2024-03-17T00:58:50;21.40;;;15.13;;
8074;SDS011;4080;42.676;23.372;2024-03-17T01:01:17;19.40;;;14.00;;
8074;SDS011;4080;42.676;23.372;2024-03-17T01:03:45;20.80;;;14.57;;
8074;SDS011;4080;42.676;23.372;2024-03-17T01:06:11;20.27;;;13.97;;
8074;SDS011;4080;42.676;23.372;2024-03-17T01:08:39;18.17;;;13.37;;
8074;SDS011;4080;42.676;23.372;2024-03-17T01:11:04;20.70;;;14.17;;
8074;SDS011;4080;42.676;23.372;2024-03-17T01:13:33;17.53;;;13.83;;
8074;SDS011;4080;42.676;23.372;2024-03-17T01:16:01;18.27;;;13.03;;
8074;SDS011;4080;42.676;23.372;2024-03-17T01:18:28;19.67;;;14.27;;
8074;SDS011;4080;42.676;23.372;2024-03-17T01:20:53;18.53;;;13.80;;
8074;SDS011;4080;42.676;23.372;2024-03-17T01:23:21;19.90;;;13.77;;
8074;SDS011;4080;42.676;23.372;2024-03-17T01:25:47;21.27;;;15.67;;
8074;SDS011;4080;42.676;23.372;2024-03-17T01:28:14;28.33;;;17.27;;
8074;SDS011;4080;42.676;23.372;2024-03-17T01:30:39;27.30;;;18.20;;
8074;SDS011;4080;42.676;23.372;2024-03-17T01:33:08;29.07;;;19.63;;
8074;SDS011;4080;42.676;23.372;2024-03-17T01:35:34;27.00;;;17.63;;
8074;SDS011;4080;42.676;23.372;2024-03-17T01:38:01;26.83;;;17.10;;
8074;SDS011;4080;42.676;23.372;2024-03-17T01:40:27;28.80;;;17.87;;
8074;SDS011;4080;42.676;23.372;2024-03-17T01:42:54;26.40;;;18.17;;
8074;SDS011;4080;42.676;23.372;2024-03-17T01:45:25;28.67;;;19.47;;
8074;SDS011;4080;42.676;23.372;2024-03-17T01:47:52;27.50;;;17.33;;
8074;SDS011;4080;42.676;23.372;2024-03-17T01:50:24;27.40;;;17.57;;
8074;SDS011;4080;42.676;23.372;2024-03-17T01:52:51;28.60;;;18.67;;
8074;SDS011;4080;42.676;23.372;2024-03-17T01:55:20;32.63;;;17.70;;
8074;SDS011;4080;42.676;23.372;2024-03-17T01:57:47;27.03;;;18.10;;
8074;SDS011;4080;42.676;23.372;2024-03-17T02:00:14;28.43;;;18.20;;
8074;SDS011;4080;42.676;23.372;2024-03-17T02:02:40;27.53;;;17.63;;
8074;SDS011;4080;42.676;23.372;2024-03-17T02:05:08;25.50;;;17.30;;
8074;SDS011;4080;42.676;23.372;2024-03-17T02:07:35;26.30;;;19.57;;
8074;SDS011;4080;42.676;23.372;2024-03-17T02:10:02;28.53;;;17.73;;
8074;SDS011;4080;42.676;23.372;2024-03-17T02:12:29;26.27;;;17.80;;
8074;SDS011;4080;42.676;23.372;2024-03-17T02:14:57;26.13;;;18.03;;
8074;SDS011;4080;42.676;23.372;2024-03-17T02:17:23;25.60;;;18.00;;
8074;SDS011;4080;42.676;23.372;2024-03-17T02:19:52;25.47;;;19.10;;
8074;SDS011;4080;42.676;23.372;2024-03-17T02:22:19;25.43;;;18.67;;
8074;SDS011;4080;42.676;23.372;2024-03-17T02:24:46;28.47;;;19.63;;
8074;SDS011;4080;42.676;23.372;2024-03-17T02:27:12;32.17;;;19.73;;
8074;SDS011;4080;42.676;23.372;2024-03-17T02:29:40;25.47;;;19.00;;
8074;SDS011;4080;42.676;23.372;2024-03-17T02:32:06;28.50;;;19.70;;
8074;SDS011;4080;42.676;23.372;2024-03-17T02:34:33;32.23;;;20.33;;
8074;SDS011;4080;42.676;23.372;2024-03-17T02:36:59;28.63;;;19.17;;
8074;SDS011;4080;42.676;23.372;2024-03-17T02:39:28;28.50;;;20.40;;
8074;SDS011;4080;42.676;23.372;2024-03-17T02:41:59;28.23;;;17.63;;
8074;SDS011;4080;42.676;23.372;2024-03-17T02:44:27;29.27;;;19.77;;
8074;SDS011;4080;42.676;23.372;2024-03-17T02:46:54;28.27;;;19.77;;
8074;SDS011;4080;42.676;23.372;2024-03-17T02:49:21;30.23;;;20.63;;
8074;SDS011;4080;42.676;23.372;2024-03-17T02:51:47;28.87;;;21.50;;
8074;SDS011;4080;42.676;23.372;2024-03-17T02:54:15;35.40;;;22.97;;
8074;SDS011;4080;42.676;23.372;2024-03-17T02:56:43;31.27;;;22.40;;
8074;SDS011;4080;42.676;23.372;2024-03-17T02:59:10;36.60;;;21.83;;
8074;SDS011;4080;42.676;23.372;2024-03-17T03:01:37;35.13;;;22.13;;
8074;SDS011;4080;42.676;23.372;2024-03-17T03:04:04;34.70;;;23.73;;
8074;SDS011;4080;42.676;23.372;2024-03-17T03:06:31;31.70;;;22.43;;
8074;SDS011;4080;42.676;23.372;2024-03-17T03:08:59;35.47;;;22.30;;
8074;SDS011;4080;42.676;23.372;2024-03-17T03:11:26;34.27;;;22.67;;
8074;SDS011;4080;42.676;23.372;2024-03-17T03:13:54;29.50;;;21.67;;
8074;SDS011;4080;42.676;23.372;2024-03-17T03:16:21;36.93;;;22.90;;
8074;SDS011;4080;42.676;23.372;2024-03-17T03:18:50;33.57;;;22.03;;
8074;SDS011;4080;42.676;23.372;2024-03-17T03:21:17;30.77;;;22.67;;
8074;SDS011;4080;42.676;23.372;2024-03-17T03:23:44;35.40;;;23.03;;
8074;SDS011;4080;42.676;23.372;2024-03-17T03:26:11;30.27;;;21.90;;
8074;SDS011;4080;42.676;23.372;2024-03-17T03:28:38;31.50;;;20.77;;
8074;SDS011;4080;42.676;23.372;2024-03-17T03:31:07;29.80;;;19.93;;
8074;SDS011;4080;42.676;23.372;2024-03-17T03:33:38;32.90;;;21.10;;
8074;SDS011;4080;42.676;23.372;2024-03-17T03:36:09;30.27;;;21.87;;
8074;SDS011;4080;42.676;23.372;2024-03-17T03:38:36;29.43;;;20.57;;
8074;SDS011;4080;42.676;23.372;2024-03-17T03:41:07;29.43;;;21.03;;
8074;SDS011;4080;42.676;23.372;2024-03-17T03:43:35;32.53;;;22.43;;
8074;SDS011;4080;42.676;23.372;2024-03-17T03:46:02;30.87;;;21.23;;
8074;SDS011;4080;42.676;23.372;2024-03-17T03:48:31;34.27;;;21.90;;
8074;SDS011;4080;42.676;23.372;2024-03-17T03:50:59;29.47;;;21.53;;
8074;SDS011;4080;42.676;23.372;2024-03-17T03:53:30;35.47;;;21.63;;
8074;SDS011;4080;42.676;23.372;2024-03-17T03:55:57;39.20;;;25.03;;
8074;SDS011;4080;42.676;23.372;2024-03-17T03:58:23;35.60;;;24.80;;
8074;SDS011;4080;42.676;23.372;2024-03-17T04:00:50;32.53;;;23.03;;
8074;SDS011;4080;42.676;23.372;2024-03-17T04:03:17;32.07;;;22.50;;
8074;SDS011;4080;42.676;23.372;2024-03-17T04:05:44;34.60;;;22.17;;
8074;SDS011;4080;42.676;23.372;2024-03-17T04:08:11;40.40;;;26.10;;
8074;SDS011;4080;42.676;23.372;2024-03-17T04:10:38;51.40;;;35.33;;
8074;SDS011;4080;42.676;23.372;2024-03-17T04:13:05;46.27;;;29.20;;
8074;SDS011;4080;42.676;23.372;2024-03-17T04:15:32;49.53;;;28.80;;
8074;SDS011;4080;42.676;23.372;2024-03-17T04:17:59;45.93;;;29.03;;
8074;SDS011;4080;42.676;23.372;2024-03-17T04:20:27;50.47;;;31.87;;
8074;SDS011;4080;42.676;23.372;2024-03-17T04:22:55;50.60;;;32.97;;
8074;SDS011;4080;42.676;23.372;2024-03-17T04:25:23;46.33;;;30.17;;
8074;SDS011;4080;42.676;23.372;2024-03-17T04:27:50;47.23;;;29.70;;
8074;SDS011;4080;42.676;23.372;2024-03-17T04:30:16;44.47;;;29.77;;
8074;SDS011;4080;42.676;23.372;2024-03-17T04:32:43;52.73;;;29.67;;
8074;SDS011;4080;42.676;23.372;2024-03-17T04:35:10;44.07;;;26.53;;
8074;SDS011;4080;42.676;23.372;2024-03-17T04:37:37;43.20;;;28.13;;
8074;SDS011;4080;42.676;23.372;2024-03-17T04:40:08;44.40;;;28.73;;
8074;SDS011;4080;42.676;23.372;2024-03-17T04:42:38;40.03;;;25.80;;
8074;SDS011;4080;42.676;23.372;2024-03-17T04:45:06;38.20;;;24.83;;
8074;SDS011;4080;42.676;23.372;2024-03-17T04:47:34;46.43;;;26.20;;
8074;SDS011;4080;42.676;23.372;2024-03-17T04:50:02;39.23;;;24.43;;
8074;SDS011;4080;42.676;23.372;2024-03-17T04:52:30;59.13;;;39.90;;
8074;SDS011;4080;42.676;23.372;2024-03-17T04:54:57;46.97;;;31.77;;
8074;SDS011;4080;42.676;23.372;2024-03-17T04:57:25;37.33;;;25.90;;
8074;SDS011;4080;42.676;23.372;2024-03-17T04:59:52;38.73;;;24.97;;
8074;SDS011;4080;42.676;23.372;2024-03-17T05:02:19;37.07;;;25.30;;
8074;SDS011;4080;42.676;23.372;2024-03-17T05:04:48;34.43;;;22.70;;
8074;SDS011;4080;42.676;23.372;2024-03-17T05:07:15;36.23;;;23.57;;
8074;SDS011;4080;42.676;23.372;2024-03-17T05:09:41;38.47;;;23.80;;
8074;SDS011;4080;42.676;23.372;2024-03-17T05:12:10;36.70;;;24.00;;
8074;SDS011;4080;42.676;23.372;2024-03-17T05:14:38;34.50;;;23.53;;
8074;SDS011;4080;42.676;23.372;2024-03-17T05:17:06;32.43;;;21.03;;
8074;SDS011;4080;42.676;23.372;2024-03-17T05:19:33;29.77;;;21.83;;
8074;SDS011;4080;42.676;23.372;2024-03-17T05:22:00;29.20;;;20.70;;
8074;SDS011;4080;42.676;23.372;2024-03-17T05:24:27;32.77;;;21.30;;
8074;SDS011;4080;42.676;23.372;2024-03-17T05:26:54;29.30;;;20.67;;
8074;SDS011;4080;42.676;23.372;2024-03-17T05:29:20;27.33;;;19.70;;
8074;SDS011;4080;42.676;23.372;2024-03-17T05:31:49;26.90;;;19.03;;
8074;SDS011;4080;42.676;23.372;2024-03-17T05:34:16;29.33;;;19.17;;
8074;SDS011;4080;42.676;23.372;2024-03-17T05:36:43;25.30;;;18.93;;
8074;SDS011;4080;42.676;23.372;2024-03-17T05:39:12;29.37;;;19.80;;
8074;SDS011;4080;42.676;23.372;2024-03-17T05:41:39;25.83;;;18.60;;
8074;SDS011;4080;42.676;23.372;2024-03-17T05:44:06;29.33;;;19.07;;
8074;SDS011;4080;42.676;23.372;2024-03-17T05:46:33;27.47;;;19.67;;
8074;SDS011;4080;42.676;23.372;2024-03-17T05:49:02;27.53;;;18.53;;
8074;SDS011;4080;42.676;23.372;2024-03-17T05:51:29;23.93;;;18.40;;
8074;SDS011;4080;42.676;23.372;2024-03-17T05:53:57;26.90;;;19.07;;
8074;SDS011;4080;42.676;23.372;2024-03-17T05:56:24;29.43;;;18.60;;
8074;SDS011;4080;42.676;23.372;2024-03-17T05:58:51;24.53;;;18.07;;
8074;SDS011;4080;42.676;23.372;2024-03-17T06:01:18;26.47;;;18.20;;
8074;SDS011;4080;42.676;23.372;2024-03-17T06:03:47;25.80;;;19.67;;
8074;SDS011;4080;42.676;23.372;2024-03-17T06:06:16;28.70;;;18.97;;
8074;SDS011;4080;42.676;23.372;2024-03-17T06:08:42;25.90;;;18.47;;
8074;SDS011;4080;42.676;23.372;2024-03-17T06:11:10;26.67;;;19.27;;
8074;SDS011;4080;42.676;23.372;2024-03-17T06:13:37;26.47;;;19.77;;
8074;SDS011;4080;42.676;23.372;2024-03-17T06:16:04;26.20;;;19.80;;
8074;SDS011;4080;42.676;23.372;2024-03-17T06:18:31;26.53;;;20.43;;
8074;SDS011;4080;42.676;23.372;2024-03-17T06:20:58;27.93;;;21.80;;
8074;SDS011;4080;42.676;23.372;2024-03-17T06:23:26;34.53;;;28.17;;
8074;SDS011;4080;42.676;23.372;2024-03-17T06:25:53;43.40;;;36.37;;
8074;SDS011;4080;42.676;23.372;2024-03-17T06:28:20;49.03;;;36.50;;
8074;SDS011;4080;42.676;23.372;2024-03-17T06:30:54;47.10;;;36.07;;
8074;SDS011;4080;42.676;23.372;2024-03-17T06:33:24;48.57;;;38.13;;
8074;SDS011;4080;42.676;23.372;2024-03-17T06:35:53;41.47;;;34.43;;
8074;SDS011;4080;42.676;23.372;2024-03-17T06:38:20;47.33;;;36.20;;
8074;SDS011;4080;42.676;23.372;2024-03-17T06:40:51;41.83;;;33.40;;
8074;SDS011;4080;42.676;23.372;2024-03-17T06:43:19;42.00;;;30.90;;
8074;SDS011;4080;42.676;23.372;2024-03-17T06:45:55;38.07;;;29.47;;
8074;SDS011;4080;42.676;23.372;2024-03-17T06:48:23;34.63;;;27.57;;
8074;SDS011;4080;42.676;23.372;2024-03-17T06:50:51;36.90;;;27.77;;
8074;SDS011;4080;42.676;23.372;2024-03-17T06:53:19;33.87;;;26.10;;
8074;SDS011;4080;42.676;23.372;2024-03-17T06:55:57;32.70;;;25.23;;
8074;SDS011;4080;42.676;23.372;2024-03-17T06:58:26;30.43;;;25.03;;
8074;SDS011;4080;42.676;23.372;2024-03-17T07:00:55;31.63;;;24.20;;
8074;SDS011;4080;42.676;23.372;2024-03-17T07:03:23;27.17;;;23.33;;
8074;SDS011;4080;42.676;23.372;2024-03-17T07:05:51;30.93;;;24.57;;
8074;SDS011;4080;42.676;23.372;2024-03-17T07:08:21;32.40;;;24.87;;
8074;SDS011;4080;42.676;23.372;2024-03-17T07:11:00;29.97;;;24.47;;
8074;SDS011;4080;42.676;23.372;2024-03-17T07:13:28;27.90;;;22.67;;
8074;SDS011;4080;42.676;23.372;2024-03-17T07:15:56;27.33;;;21.53;;
8074;SDS011;4080;42.676;23.372;2024-03-17T07:18:24;27.90;;;21.97;;
8074;SDS011;4080;42.676;23.372;2024-03-17T07:20:52;25.47;;;19.67;;
8074;SDS011;4080;42.676;23.372;2024-03-17T07:23:19;25.93;;;19.73;;
8074;SDS011;4080;42.676;23.372;2024-03-17T07:25:52;28.53;;;20.87;;
8074;SDS011;4080;42.676;23.372;2024-03-17T07:28:21;25.73;;;20.70;;
8074;SDS011;4080;42.676;23.372;2024-03-17T07:30:49;30.10;;;20.20;;
8074;SDS011;4080;42.676;23.372;2024-03-17T07:33:17;29.73;;;19.97;;
8074;SDS011;4080;42.676;23.372;2024-03-17T07:35:48;27.27;;;19.57;;
8074;SDS011;4080;42.676;23.372;2024-03-17T07:38:16;24.23;;;19.30;;
8074;SDS011;4080;42.676;23.372;2024-03-17T07:40:44;24.30;;;19.30;;
8074;SDS011;4080;42.676;23.372;2024-03-17T07:43:11;22.10;;;17.60;;
8074;SDS011;4080;42.676;23.372;2024-03-17T07:45:40;23.83;;;18.33;;
8074;SDS011;4080;42.676;23.372;2024-03-17T07:48:46;79.07;;;58.73;;
8074;SDS011;4080;42.676;23.372;2024-03-17T07:51:14;20.17;;;16.80;;
8074;SDS011;4080;42.676;23.372;2024-03-17T07:53:43;22.23;;;16.50;;
8074;SDS011;4080;42.676;23.372;2024-03-17T07:56:14;21.93;;;15.63;;
8074;SDS011;4080;42.676;23.372;2024-03-17T07:58:42;20.30;;;15.23;;
8074;SDS011;4080;42.676;23.372;2024-03-17T08:01:11;21.27;;;16.53;;
8074;SDS011;4080;42.676;23.372;2024-03-17T08:03:39;21.30;;;15.03;;
8074;SDS011;4080;42.676;23.372;2024-03-17T08:06:10;20.13;;;13.83;;
8074;SDS011;4080;42.676;23.372;2024-03-17T08:08:38;17.87;;;13.77;;
8074;SDS011;4080;42.676;23.372;2024-03-17T08:11:04;20.50;;;16.00;;
8074;SDS011;4080;42.676;23.372;2024-03-17T08:13:31;20.20;;;15.67;;
8074;SDS011;4080;42.676;23.372;2024-03-17T09:19:51;21.00;;;16.63;;
8074;SDS011;4080;42.676;23.372;2024-03-17T09:22:19;12.07;;;10.60;;
8074;SDS011;4080;42.676;23.372;2024-03-17T09:24:46;13.03;;;11.00;;
8074;SDS011;4080;42.676;23.372;2024-03-17T09:27:13;11.60;;;10.40;;
8074;SDS011;4080;42.676;23.372;2024-03-17T09:29:45;11.60;;;10.03;;
8074;SDS011;4080;42.676;23.372;2024-03-17T09:32:12;11.10;;;9.97;;
8074;SDS011;4080;42.676;23.372;2024-03-17T09:34:43;11.30;;;10.10;;
8074;SDS011;4080;42.676;23.372;2024-03-17T09:37:14;12.07;;;10.77;;
8074;SDS011;4080;42.676;23.372;2024-03-17T09:39:42;14.33;;;10.33;;
8074;SDS011;4080;42.676;23.372;2024-03-17T09:42:10;17.13;;;10.40;;
8074;SDS011;4080;42.676;23.372;2024-03-17T09:44:43;11.37;;;10.17;;
8074;SDS011;4080;42.676;23.372;2024-03-17T09:47:15;10.30;;;9.20;;
8074;SDS011;4080;42.676;23.372;2024-03-17T09:49:46;11.30;;;9.87;;
8074;SDS011;4080;42.676;23.372;2024-03-17T09:52:16;14.10;;;11.10;;
8074;SDS011;4080;42.676;23.372;2024-03-17T09:54:48;13.93;;;10.63;;
8074;SDS011;4080;42.676;23.372;2024-03-17T09:57:20;12.87;;;10.50;;
8074;SDS011;4080;42.676;23.372;2024-03-17T09:59:51;11.67;;;10.03;;
8074;SDS011;4080;42.676;23.372;2024-03-17T10:02:20;12.37;;;9.80;;
8074;SDS011;4080;42.676;23.372;2024-03-17T10:04:47;11.97;;;9.20;;
8074;SDS011;4080;42.676;23.372;2024-03-17T10:07:16;12.60;;;9.30;;
8074;SDS011;4080;42.676;23.372;2024-03-17T10:09:43;12.37;;;9.27;;
8074;SDS011;4080;42.676;23.372;2024-03-17T10:12:26;7.80;;;7.00;;
8074;SDS011;4080;42.676;23.372;2024-03-17T10:15:00;7.87;;;6.93;;
8074;SDS011;4080;42.676;23.372;2024-03-17T10:17:30;19.20;;;15.50;;
8074;SDS011;4080;42.676;23.372;2024-03-17T10:20:11;12.47;;;9.00;;
8074;SDS011;4080;42.676;23.372;2024-03-17T10:22:49;9.73;;;7.70;;
8074;SDS011;4080;42.676;23.372;2024-03-17T10:25:24;7.67;;;6.50;;
8074;SDS011;4080;42.676;23.372;2024-03-17T10:27:52;8.50;;;6.73;;
8074;SDS011;4080;42.676;23.372;2024-03-17T10:30:20;8.03;;;7.23;;
8074;SDS011;4080;42.676;23.372;2024-03-17T10:32:52;8.13;;;7.07;;
8074;SDS011;4080;42.676;23.372;2024-03-17T10:35:26;7.60;;;6.57;;
8074;SDS011;4080;42.676;23.372;2024-03-17T10:37:56;9.83;;;7.30;;
8074;SDS011;4080;42.676;23.372;2024-03-17T10:40:24;6.60;;;6.00;;
8074;SDS011;4080;42.676;23.372;2024-03-17T10:42:52;8.10;;;6.30;;
8074;SDS011;4080;42.676;23.372;2024-03-17T10:45:19;6.60;;;5.90;;
8074;SDS011;4080;42.676;23.372;2024-03-17T10:47:47;5.20;;;4.60;;
8074;SDS011;4080;42.676;23.372;2024-03-17T10:50:16;6.77;;;5.43;;
8074;SDS011;4080;42.676;23.372;2024-03-17T10:52:45;7.87;;;5.40;;
8074;SDS011;4080;42.676;23.372;2024-03-17T10:55:23;5.53;;;4.77;;
8074;SDS011;4080;42.676;23.372;2024-03-17T10:57:52;4.40;;;4.00;;
8074;SDS011;4080;42.676;23.372;2024-03-17T11:00:23;5.23;;;4.73;;
8074;SDS011;4080;42.676;23.372;2024-03-17T11:02:54;5.37;;;3.53;;
8074;SDS011;4080;42.676;23.372;2024-03-17T11:05:22;4.73;;;4.10;;
8074;SDS011;4080;42.676;23.372;2024-03-17T11:07:51;4.80;;;4.27;;
8074;SDS011;4080;42.676;23.372;2024-03-17T11:10:20;9.50;;;5.30;;
8074;SDS011;4080;42.676;23.372;2024-03-17T11:12:50;5.23;;;4.50;;
8074;SDS011;4080;42.676;23.372;2024-03-17T11:15:37;6.43;;;4.90;;
8074;SDS011;4080;42.676;23.372;2024-03-17T11:23:59;5.37;;;4.87;;
8074;SDS011;4080;42.676;23.372;2024-03-17T11:26:33;8.40;;;4.73;;
8074;SDS011;4080;42.676;23.372;2024-03-17T11:29:01;5.93;;;4.90;;
8074;SDS011;4080;42.676;23.372;2024-03-17T11:31:42;7.40;;;5.30;;
8074;SDS011;4080;42.676;23.372;2024-03-17T11:37:01;6.13;;;5.47;;
8074;SDS011;4080;42.676;23.372;2024-03-17T11:39:48;7.17;;;6.03;;
8074;SDS011;4080;42.676;23.372;2024-03-17T11:42:19;7.00;;;5.87;;
8074;SDS011;4080;42.676;23.372;2024-03-17T11:44:57;7.10;;;5.70;;
8074;SDS011;4080;42.676;23.372;2024-03-17T11:47:35;7.23;;;6.27;;
8074;SDS011;4080;42.676;23.372;2024-03-17T11:50:03;6.50;;;5.40;;
8074;SDS011;4080;42.676;23.372;2024-03-17T11:52:31;5.43;;;4.93;;
8074;SDS011;4080;42.676;23.372;2024-03-17T11:54:57;5.57;;;5.07;;
8074;SDS011;4080;42.676;23.372;2024-03-17T11:57:26;6.73;;;4.93;;
8074;SDS011;4080;42.676;23.372;2024-03-17T11:59:53;7.70;;;6.63;;
8074;SDS011;4080;42.676;23.372;2024-03-17T12:02:21;5.93;;;5.37;;
8074;SDS011;4080;42.676;23.372;2024-03-17T12:04:48;6.77;;;6.07;;
8074;SDS011;4080;42.676;23.372;2024-03-17T12:07:17;6.30;;;5.10;;
8074;SDS011;4080;42.676;23.372;2024-03-17T12:09:46;6.27;;;5.40;;
8074;SDS011;4080;42.676;23.372;2024-03-17T12:12:16;6.40;;;5.33;;
8074;SDS011;4080;42.676;23.372;2024-03-17T12:14:47;6.73;;;5.37;;
8074;SDS011;4080;42.676;23.372;2024-03-17T12:17:15;8.20;;;5.60;;
8074;SDS011;4080;42.676;23.372;2024-03-17T12:19:46;7.00;;;5.30;;
8074;SDS011;4080;42.676;23.372;2024-03-17T12:22:15;6.77;;;5.50;;
8074;SDS011;4080;42.676;23.372;2024-03-17T12:24:47;6.20;;;5.60;;
8074;SDS011;4080;42.676;23.372;2024-03-17T12:27:17;7.97;;;5.90;;
8074;SDS011;4080;42.676;23.372;2024-03-17T12:29:43;8.40;;;5.53;;
8074;SDS011;4080;42.676;23.372;2024-03-17T12:32:13;7.37;;;5.27;;
8074;SDS011;4080;42.676;23.372;2024-03-17T12:34:40;5.93;;;5.33;;
8074;SDS011;4080;42.676;23.372;2024-03-17T12:37:07;5.67;;;5.17;;
8074;SDS011;4080;42.676;23.372;2024-03-17T12:39:34;6.70;;;6.00;;
8074;SDS011;4080;42.676;23.372;2024-03-17T12:42:05;7.83;;;5.60;;
8074;SDS011;4080;42.676;23.372;2024-03-17T12:44:32;5.93;;;5.33;;
8074;SDS011;4080;42.676;23.372;2024-03-17T12:47:01;6.23;;;5.30;;
8074;SDS011;4080;42.676;23.372;2024-03-17T12:49:29;5.80;;;5.20;;
8074;SDS011;4080;42.676;23.372;2024-03-17T12:51:58;5.83;;;5.23;;
8074;SDS011;4080;42.676;23.372;2024-03-17T12:54:24;6.63;;;5.40;;
8074;SDS011;4080;42.676;23.372;2024-03-17T12:57:03;8.67;;;5.87;;
8074;SDS011;4080;42.676;23.372;2024-03-17T12:59:48;8.40;;;6.60;;
8074;SDS011;4080;42.676;23.372;2024-03-17T13:02:32;7.93;;;6.40;;
8074;SDS011;4080;42.676;23.372;2024-03-17T13:05:07;7.27;;;5.70;;
8074;SDS011;4080;42.676;23.372;2024-03-17T13:07:40;8.33;;;5.97;;
8074;SDS011;4080;42.676;23.372;2024-03-17T13:10:08;11.20;;;9.10;;
8074;SDS011;4080;42.676;23.372;2024-03-17T13:12:36;7.07;;;6.37;;
8074;SDS011;4080;42.676;23.372;2024-03-17T13:15:03;8.13;;;7.07;;
8074;SDS011;4080;42.676;23.372;2024-03-17T13:17:30;7.50;;;6.67;;
8074;SDS011;4080;42.676;23.372;2024-03-17T13:19:59;7.53;;;6.80;;
8074;SDS011;4080;42.676;23.372;2024-03-17T13:22:28;7.50;;;6.80;;
8074;SDS011;4080;42.676;23.372;2024-03-17T13:24:55;8.67;;;6.73;;
8074;SDS011;4080;42.676;23.372;2024-03-17T13:27:22;8.77;;;7.33;;
8074;SDS011;4080;42.676;23.372;2024-03-17T13:29:49;9.77;;;7.53;;
8074;SDS011;4080;42.676;23.372;2024-03-17T13:32:16;8.80;;;7.90;;
8074;SDS011;4080;42.676;23.372;2024-03-17T13:34:43;8.10;;;7.30;;
8074;SDS011;4080;42.676;23.372;2024-03-17T13:37:11;10.37;;;9.20;;
8074;SDS011;4080;42.676;23.372;2024-03-17T13:39:39;8.83;;;7.80;;
8074;SDS011;4080;42.676;23.372;2024-03-17T13:42:06;10.07;;;7.43;;
8074;SDS011;4080;42.676;23.372;2024-03-17T13:44:35;8.03;;;7.23;;
8074;SDS011;4080;42.676;23.372;2024-03-17T13:47:01;9.00;;;7.80;;
8074;SDS011;4080;42.676;23.372;2024-03-17T13:49:29;16.77;;;12.03;;
8074;SDS011;4080;42.676;23.372;2024-03-17T13:51:56;8.93;;;8.03;;
8074;SDS011;4080;42.676;23.372;2024-03-17T13:54:23;9.37;;;7.80;;
8074;SDS011;4080;42.676;23.372;2024-03-17T13:56:51;9.03;;;7.73;;
8074;SDS011;4080;42.676;23.372;2024-03-17T13:59:19;8.47;;;7.47;;
8074;SDS011;4080;42.676;23.372;2024-03-17T14:01:47;11.00;;;7.40;;
8074;SDS011;4080;42.676;23.372;2024-03-17T14:04:14;9.73;;;8.27;;
8074;SDS011;4080;42.676;23.372;2024-03-17T14:06:44;12.07;;;9.40;;
8074;SDS011;4080;42.676;23.372;2024-03-17T14:09:12;9.17;;;8.27;;
8074;SDS011;4080;42.676;23.372;2024-03-17T14:11:40;10.63;;;8.23;;
8074;SDS011;4080;42.676;23.372;2024-03-17T14:14:08;9.57;;;8.57;;
8074;SDS011;4080;42.676;23.372;2024-03-17T14:16:36;10.17;;;8.70;;
8074;SDS011;4080;42.676;23.372;2024-03-17T14:19:03;11.40;;;8.53;;
8074;SDS011;4080;42.676;23.372;2024-03-17T14:21:30;10.40;;;8.43;;
8074;SDS011;4080;42.676;23.372;2024-03-17T14:23:57;10.43;;;8.57;;
8074;SDS011;4080;42.676;23.372;2024-03-17T14:26:24;13.30;;;8.60;;
8074;SDS011;4080;42.676;23.372;2024-03-17T14:28:52;8.70;;;7.77;;
8074;SDS011;4080;42.676;23.372;2024-03-17T14:31:21;13.67;;;8.53;;
8074;SDS011;4080;42.676;23.372;2024-03-17T14:33:48;9.83;;;7.60;;
8074;SDS011;4080;42.676;23.372;2024-03-17T14:36:15;15.40;;;8.20;;
8074;SDS011;4080;42.676;23.372;2024-03-17T14:38:43;10.37;;;7.70;;
8074;SDS011;4080;42.676;23.372;2024-03-17T14:41:10;12.03;;;9.57;;
8074;SDS011;4080;42.676;23.372;2024-03-17T14:43:37;11.10;;;8.03;;
8074;SDS011;4080;42.676;23.372;2024-03-17T14:46:05;10.23;;;8.63;;
8074;SDS011;4080;42.676;23.372;2024-03-17T14:48:37;9.83;;;8.73;;
8074;SDS011;4080;42.676;23.372;2024-03-17T14:51:04;11.70;;;8.70;;
8074;SDS011;4080;42.676;23.372;2024-03-17T14:53:31;10.23;;;8.30;;
8074;SDS011;4080;42.676;23.372;2024-03-17T14:55:58;11.37;;;8.70;;
8074;SDS011;4080;42.676;23.372;2024-03-17T14:58:25;10.40;;;8.40;;
8074;SDS011;4080;42.676;23.372;2024-03-17T15:00:52;10.00;;;8.50;;
8074;SDS011;4080;42.676;23.372;2024-03-17T15:03:19;9.63;;;8.43;;
8074;SDS011;4080;42.676;23.372;2024-03-17T15:05:47;10.90;;;8.97;;
8074;SDS011;4080;42.676;23.372;2024-03-17T15:08:16;13.57;;;9.00;;
8074;SDS011;4080;42.676;23.372;2024-03-17T15:10:44;12.07;;;9.80;;
8074;SDS011;4080;42.676;23.372;2024-03-17T15:13:11;12.30;;;10.10;;
8074;SDS011;4080;42.676;23.372;2024-03-17T15:15:40;24.77;;;15.43;;
8074;SDS011;4080;42.676;23.372;2024-03-17T15:18:06;23.43;;;13.90;;
8074;SDS011;4080;42.676;23.372;2024-03-17T15:20:34;22.73;;;13.73;;
8074;SDS011;4080;42.676;23.372;2024-03-17T15:23:02;13.60;;;9.67;;
8074;SDS011;4080;42.676;23.372;2024-03-17T15:25:30;10.90;;;9.00;;
8074;SDS011;4080;42.676;23.372;2024-03-17T15:27:57;12.60;;;10.03;;
8074;SDS011;4080;42.676;23.372;2024-03-17T15:30:26;14.63;;;10.53;;
8074;SDS011;4080;42.676;23.372;2024-03-17T15:32:54;13.10;;;10.17;;
8074;SDS011;4080;42.676;23.372;2024-03-17T15:35:23;11.80;;;9.30;;
8074;SDS011;4080;42.676;23.372;2024-03-17T15:37:55;12.60;;;10.40;;
8074;SDS011;4080;42.676;23.372;2024-03-17T15:40:23;19.93;;;13.30;;
8074;SDS011;4080;42.676;23.372;2024-03-17T15:42:51;13.60;;;9.80;;
8074;SDS011;4080;42.676;23.372;2024-03-17T15:45:18;12.17;;;9.80;;
8074;SDS011;4080;42.676;23.372;2024-03-17T15:47:46;10.93;;;9.77;;
8074;SDS011;4080;42.676;23.372;2024-03-17T15:50:13;12.77;;;9.80;;
8074;SDS011;4080;42.676;23.372;2024-03-17T15:52:40;11.70;;;10.10;;
8074;SDS011;4080;42.676;23.372;2024-03-17T15:55:09;10.60;;;9.17;;
8074;SDS011;4080;42.676;23.372;2024-03-17T15:57:38;13.80;;;10.50;;
8074;SDS011;4080;42.676;23.372;2024-03-17T16:00:05;12.40;;;10.10;;
8074;SDS011;4080;42.676;23.372;2024-03-17T16:02:34;10.87;;;8.27;;